Terminal Aerodrome Forecast
Issued by NWS

Home | Current Version | Previous Version | Text Only | Print | Product List | Glossary On
Versions: 1 2 3 4 5 6 7 8 9 10 11 12 13 14 15
000
FTUS45 KRIW 201133
TAFPNA
TAF
KPNA 201133Z 2012/2112 12006KT P6SM BKN070
     FM201700 23011KT P6SM SCT050 BKN070
     FM202000 25018G26KT P6SM VCSH SCT030 BKN060
     FM210600 36009KT P6SM -SHRA SCT020 OVC040
      AMD LTD TO CLD VIS AND WIND=

USA.gov is the U.S. government's official web portal to all federal, state and local government web resources and services.